createdAt,value
2023-01-12T00:03:09.427Z,1.70
2023-01-12T00:07:14.519Z,1.70
2023-01-12T00:11:19.266Z,1.70
2023-01-12T00:15:57.812Z,1.30
2023-01-12T00:20:01.437Z,1.60
2023-01-12T00:24:08.704Z,1.70
2023-01-12T00:28:12.200Z,1.60
2023-01-12T00:32:18.918Z,1.60
2023-01-12T00:36:22.714Z,1.80
2023-01-12T00:40:26.466Z,1.60
2023-01-12T00:44:47.987Z,1.90
2023-01-12T00:48:52.919Z,1.80
2023-01-12T00:52:56.679Z,1.60
2023-01-12T00:57:00.529Z,1.60
2023-01-12T01:01:09.082Z,1.50
2023-01-12T01:05:14.096Z,1.10
2023-01-12T01:09:17.885Z,1.40
2023-01-12T01:13:21.367Z,1.40
2023-01-12T01:17:25.163Z,1.20
2023-01-12T01:21:30.151Z,1.30
2023-01-12T01:25:34.804Z,1.20
2023-01-12T01:29:38.336Z,1.10
2023-01-12T01:33:42.260Z,1.20
2023-01-12T01:37:47.439Z,0.90
2023-01-12T01:41:50.990Z,1.30
2023-01-12T01:46:01.412Z,1.20
2023-01-12T01:50:15.558Z,1.00
2023-01-12T01:54:22.715Z,1.10
2023-01-12T01:58:30.557Z,1.20
2023-01-12T02:02:36.004Z,1.30
2023-01-12T02:06:39.944Z,1.40
2023-01-12T02:10:45.362Z,1.10
2023-01-12T02:15:08.636Z,1.10
2023-01-12T02:19:30.600Z,1.10
2023-01-12T02:24:12.669Z,1.20
2023-01-12T02:28:49.320Z,1.20
2023-01-12T02:33:02.740Z,1.20
2023-01-12T02:37:17.652Z,1.10
2023-01-12T02:41:46.393Z,1.20
2023-01-12T02:45:54.872Z,1.10
2023-01-12T02:50:03.375Z,1.20
2023-01-12T02:54:11.193Z,1.20
2023-01-12T02:58:19.026Z,1.10
2023-01-12T03:02:25.740Z,1.10
2023-01-12T03:06:41.923Z,1.20
2023-01-12T03:11:06.712Z,1.20
2023-01-12T03:15:12.890Z,1.20
2023-01-12T03:19:20.443Z,1.10
2023-01-12T03:23:30.467Z,1.30
2023-01-12T03:27:38.511Z,1.00
2023-01-12T03:31:43.257Z,1.10
2023-01-12T03:35:57.287Z,1.00
2023-01-12T03:40:06.141Z,1.10
2023-01-12T03:44:21.564Z,1.10
2023-01-12T03:48:31.317Z,1.10
2023-01-12T03:52:37.392Z,1.00
2023-01-12T03:56:45.807Z,1.10
2023-01-12T04:00:51.595Z,1.00
2023-01-12T04:04:55.119Z,1.00
2023-01-12T04:08:58.626Z,1.30
2023-01-12T04:13:03.349Z,1.10
2023-01-12T04:17:06.913Z,1.10
2023-01-12T04:21:30.669Z,1.30
2023-01-12T04:25:35.075Z,1.10
2023-01-12T04:29:39.808Z,1.00
2023-01-12T04:33:43.290Z,1.00
2023-01-12T04:37:47.602Z,0.90
2023-01-12T04:41:51.114Z,1.10
2023-01-12T04:45:55.798Z,0.90
2023-01-12T04:49:59.111Z,0.90
2023-01-12T04:54:02.469Z,0.80
2023-01-12T04:58:06.087Z,1.00
2023-01-12T05:02:10.966Z,0.80
2023-01-12T05:06:14.625Z,0.90
2023-01-12T05:10:24.295Z,0.90
2023-01-12T05:14:27.582Z,0.80
2023-01-12T05:18:32.613Z,0.80
2023-01-12T05:22:36.282Z,0.60
2023-01-12T05:26:39.582Z,0.40
2023-01-12T05:30:42.901Z,0.30
2023-01-12T05:34:48.584Z,0.40
2023-01-12T05:38:51.952Z,0.50
2023-01-12T05:43:13.224Z,0.40
2023-01-12T05:47:16.926Z,0.30
2023-01-12T05:51:22.584Z,0.20
2023-01-12T05:55:25.913Z,0.20
2023-01-12T05:59:29.368Z,0.50
2023-01-12T06:03:33.415Z,0.30
2023-01-12T06:07:38.772Z,0.20
2023-01-12T06:11:59.587Z,0.30
2023-01-12T06:16:05.336Z,0.30
2023-01-12T06:20:10.701Z,0.30
2023-01-12T06:24:16.148Z,0.20
2023-01-12T06:28:19.435Z,0.20
2023-01-12T06:32:22.777Z,0.10
2023-01-12T06:36:26.114Z,0.20
2023-01-12T06:40:30.720Z,0.10
2023-01-12T06:44:34.014Z,-0.20
2023-01-12T06:48:38.680Z,-0.30
2023-01-12T06:52:43.828Z,-0.40
2023-01-12T06:56:48.633Z,-0.50
2023-01-12T07:00:52.156Z,-0.50
2023-01-12T07:04:55.563Z,-0.20
2023-01-12T07:08:58.980Z,-0.20
2023-01-12T07:13:03.559Z,-0.30
2023-01-12T07:17:06.897Z,-0.30
2023-01-12T07:21:13.568Z,-0.30
2023-01-12T07:25:17.194Z,-0.60
2023-01-12T07:29:21.824Z,-0.60
2023-01-12T07:33:25.151Z,-0.50
2023-01-12T07:37:28.440Z,-0.50
2023-01-12T07:41:49.302Z,-0.70
2023-01-12T07:45:56.808Z,-0.60
2023-01-12T07:50:00.164Z,-0.60
2023-01-12T07:54:03.626Z,-0.40
2023-01-12T07:58:09.268Z,-0.50
2023-01-12T08:02:23.290Z,-0.30
2023-01-12T08:06:26.708Z,-0.40
2023-01-12T08:10:30.319Z,-0.20
2023-01-12T08:14:37.326Z,-0.40
2023-01-12T08:18:47.553Z,-0.20
2023-01-12T08:22:54.601Z,-0.40
2023-01-12T08:27:00.072Z,-0.20
2023-01-12T08:31:03.670Z,-0.10
2023-01-12T08:35:10.090Z,0.10
2023-01-12T08:39:13.416Z,0.20
2023-01-12T08:43:38.733Z,0.30
2023-01-12T08:47:44.498Z,0.30
2023-01-12T08:51:49.213Z,0.40
2023-01-12T08:55:54.109Z,0.60
2023-01-12T08:59:57.750Z,0.60
2023-01-12T09:04:01.093Z,1.00
2023-01-12T09:08:06.033Z,0.90
2023-01-12T09:12:09.572Z,1.10
2023-01-12T09:16:15.039Z,1.40
2023-01-12T09:20:18.706Z,2.00
2023-01-12T09:24:23.460Z,2.30
2023-01-12T09:28:26.864Z,2.30
2023-01-12T09:32:36.727Z,2.50
2023-01-12T09:36:41.688Z,2.90
2023-01-12T09:40:46.522Z,3.20
2023-01-12T09:45:10.864Z,3.60
2023-01-12T09:49:16.776Z,3.70
2023-01-12T09:53:26.578Z,4.00
2023-01-12T09:58:04.104Z,4.30
2023-01-12T10:02:13.136Z,5.10
2023-01-12T10:06:18.213Z,5.70
2023-01-12T10:10:21.757Z,6.50
2023-01-12T10:14:39.061Z,7.10
2023-01-12T10:18:47.665Z,7.60
2023-01-12T10:22:54.799Z,8.20
2023-01-12T10:27:02.429Z,8.90
2023-01-12T10:31:18.071Z,9.90
2023-01-12T10:35:24.626Z,10.40
2023-01-12T10:39:32.250Z,10.50
2023-01-12T10:43:35.841Z,10.60
2023-01-12T10:47:40.654Z,10.60
2023-01-12T10:51:52.235Z,10.30
2023-01-12T10:55:57.883Z,10.40
2023-01-12T11:00:05.851Z,10.20
2023-01-12T11:04:14.388Z,10.30
2023-01-12T11:08:24.536Z,10.60
2023-01-12T11:12:32.772Z,10.90
2023-01-12T11:16:40.685Z,11.20
2023-01-12T11:20:51.656Z,10.90
2023-01-12T11:24:59.145Z,10.30
2023-01-12T11:29:08.985Z,11.10
2023-01-12T11:33:16.576Z,13.00
2023-01-12T11:37:21.437Z,14.10
2023-01-12T11:41:29.598Z,14.00
2023-01-12T11:45:44.721Z,13.40
2023-01-12T11:49:55.492Z,13.00
2023-01-12T11:54:00.663Z,11.90
2023-01-12T11:58:14.588Z,10.70
2023-01-12T12:02:34.103Z,10.10
2023-01-12T12:07:01.256Z,9.70
2023-01-12T12:11:13.087Z,9.60
2023-01-12T12:15:29.518Z,9.70
2023-01-12T12:19:45.269Z,9.80
2023-01-12T12:23:59.108Z,9.70
2023-01-12T12:43:26.891Z,9.70
2023-01-12T12:47:54.410Z,11.40
2023-01-12T12:51:59.281Z,11.70
2023-01-12T12:56:05.741Z,11.80
2023-01-12T13:00:30.830Z,11.60
2023-01-12T13:05:06.126Z,12.20
2023-01-12T13:09:41.092Z,14.90
2023-01-12T13:14:00.264Z,16.80
2023-01-12T13:18:06.789Z,15.20
2023-01-12T13:22:29.156Z,15.10
2023-01-12T13:26:43.845Z,15.60
2023-01-12T13:30:57.288Z,15.00
2023-01-12T13:35:02.293Z,13.30
2023-01-12T13:39:09.297Z,12.30
2023-01-12T13:43:22.597Z,11.00
2023-01-12T13:47:30.650Z,10.60
2023-01-12T13:51:41.989Z,10.30
2023-01-12T13:55:57.821Z,9.80
2023-01-12T14:00:38.502Z,9.50
2023-01-12T14:05:06.955Z,9.20
2023-01-12T14:09:23.093Z,9.00
2023-01-12T14:14:15.998Z,8.60
2023-01-12T14:18:22.018Z,8.20
2023-01-12T14:22:26.141Z,7.90
2023-01-12T14:26:31.962Z,7.60
2023-01-12T14:30:36.924Z,7.30
2023-01-12T14:34:47.598Z,6.90
2023-01-12T14:38:52.321Z,6.50
2023-01-12T14:43:15.523Z,6.30
2023-01-12T14:47:29.816Z,6.10
2023-01-12T14:51:35.803Z,5.90
2023-01-12T14:55:41.408Z,5.80
2023-01-12T14:59:48.500Z,5.60
2023-01-12T15:03:53.599Z,5.50
2023-01-12T15:08:01.442Z,5.30
2023-01-12T15:12:27.137Z,5.20
2023-01-12T15:16:52.704Z,5.00
2023-01-12T15:21:17.028Z,4.90
2023-01-12T15:25:41.884Z,4.70
2023-01-12T15:29:46.519Z,4.50
2023-01-12T15:33:51.929Z,4.30
2023-01-12T15:38:03.246Z,4.10
2023-01-12T15:42:18.770Z,3.80
2023-01-12T15:46:22.836Z,3.60
2023-01-12T15:50:29.559Z,3.40
2023-01-12T15:54:34.891Z,3.20
2023-01-12T15:58:42.326Z,3.00
2023-01-12T16:02:48.875Z,2.90
2023-01-12T16:06:55.106Z,2.70
2023-01-12T16:11:17.015Z,2.60
2023-01-12T16:15:25.284Z,2.50
2023-01-12T16:19:29.109Z,2.40
2023-01-12T16:23:34.569Z,2.20
2023-01-12T16:27:39.145Z,2.10
2023-01-12T16:32:00.304Z,2.00
2023-01-12T16:36:04.452Z,1.90
2023-01-12T16:40:13.275Z,1.70
2023-01-12T16:44:19.324Z,1.60
2023-01-12T16:48:23.219Z,1.40
2023-01-12T16:53:31.220Z,1.40
2023-01-12T16:58:22.480Z,1.40
2023-01-12T17:02:32.124Z,1.30
2023-01-12T17:06:36.025Z,1.30
2023-01-12T17:10:39.835Z,1.20
2023-01-12T17:15:25.577Z,1.20
2023-01-12T17:19:32.588Z,1.20
2023-01-12T17:23:36.116Z,1.40
2023-01-12T17:27:41.624Z,1.40
2023-01-12T17:31:45.133Z,1.50
2023-01-12T17:35:50.330Z,1.20
2023-01-12T17:39:53.694Z,1.60
2023-01-12T17:43:58.740Z,1.30
2023-01-12T17:48:05.146Z,1.60
2023-01-12T17:52:10.039Z,1.30
2023-01-12T17:56:13.884Z,1.30
2023-01-12T18:00:18.279Z,1.20
2023-01-12T18:04:22.799Z,1.20
2023-01-12T18:08:27.428Z,0.70
2023-01-12T18:12:31.715Z,0.90
2023-01-12T18:16:36.143Z,0.80
2023-01-12T18:20:39.857Z,0.80
2023-01-12T18:24:45.345Z,0.80
2023-01-12T18:28:49.258Z,0.70
2023-01-12T18:32:52.688Z,0.60
2023-01-12T18:36:56.267Z,0.80
2023-01-12T18:41:20.803Z,0.90
2023-01-12T18:45:25.993Z,0.80
2023-01-12T18:49:30.871Z,1.00
2023-01-12T18:53:34.093Z,0.70
2023-01-12T18:57:40.140Z,1.00
2023-01-12T19:01:43.911Z,1.20
2023-01-12T19:05:58.823Z,1.30
2023-01-12T19:10:03.090Z,1.50
2023-01-12T19:14:26.626Z,1.40
2023-01-12T19:18:31.345Z,1.30
2023-01-12T19:22:52.470Z,0.90
2023-01-12T19:27:13.340Z,1.30
2023-01-12T19:31:20.359Z,1.00
2023-01-12T19:35:25.050Z,1.00
2023-01-12T19:39:49.387Z,1.30
2023-01-12T19:43:57.616Z,1.30
2023-01-12T19:48:04.171Z,1.40
2023-01-12T19:52:08.008Z,1.50
2023-01-12T19:56:13.559Z,1.60
2023-01-12T20:00:19.718Z,1.50
2023-01-12T20:04:25.712Z,1.40
2023-01-12T20:08:29.307Z,1.50
2023-01-12T20:12:34.636Z,1.50
2023-01-12T20:16:41.857Z,1.60
2023-01-12T20:20:47.447Z,1.30
2023-01-12T20:25:01.257Z,1.40
2023-01-12T20:29:05.220Z,1.30
2023-01-12T20:33:11.544Z,1.50
2023-01-12T20:37:16.442Z,1.30
2023-01-12T20:41:20.700Z,1.30
2023-01-12T20:45:25.199Z,1.40
2023-01-12T20:49:31.511Z,1.20
2023-01-12T20:53:36.885Z,1.10
2023-01-12T20:57:40.212Z,1.10
2023-01-12T21:01:44.624Z,0.90
2023-01-12T21:05:49.122Z,0.90
2023-01-12T21:09:54.230Z,0.90
2023-01-12T21:13:58.044Z,0.80
2023-01-12T21:18:01.608Z,0.70
2023-01-12T21:22:05.413Z,0.40
2023-01-12T21:26:11.295Z,0.60
2023-01-12T21:30:15.893Z,0.60
2023-01-12T21:34:19.399Z,0.70
2023-01-12T21:38:23.452Z,0.70
2023-01-12T21:42:47.142Z,0.40
2023-01-12T21:46:50.419Z,0.60
2023-01-12T21:50:54.195Z,0.70
2023-01-12T21:54:57.496Z,0.50
2023-01-12T21:59:02.406Z,0.60
2023-01-12T22:03:05.943Z,0.60
2023-01-12T22:07:12.424Z,0.80
2023-01-12T22:11:16.869Z,0.80
2023-01-12T22:15:21.955Z,0.80
2023-01-12T22:19:25.385Z,0.60
2023-01-12T22:23:28.750Z,0.60
2023-01-12T22:27:32.778Z,0.60
2023-01-12T22:31:37.549Z,0.80
2023-01-12T22:35:40.922Z,0.80
2023-01-12T22:39:44.219Z,0.80
2023-01-12T22:43:49.679Z,0.80
2023-01-12T22:47:55.641Z,0.70
2023-01-12T22:52:02.504Z,0.80
2023-01-12T22:56:06.690Z,0.90
2023-01-12T23:00:13.200Z,1.00
2023-01-12T23:04:25.164Z,0.90
2023-01-12T23:08:29.211Z,0.80
2023-01-12T23:12:33.134Z,0.70
2023-01-12T23:16:37.585Z,0.80
2023-01-12T23:20:43.086Z,0.80
2023-01-12T23:24:47.020Z,0.90
2023-01-12T23:28:53.054Z,0.90
2023-01-12T23:32:56.875Z,0.90
2023-01-12T23:37:02.244Z,0.80
2023-01-12T23:41:14.253Z,1.00
2023-01-12T23:45:19.586Z,0.70
2023-01-12T23:49:23.475Z,1.00
2023-01-12T23:53:30.213Z,0.80
2023-01-12T23:57:35.594Z,1.00
